Time;durP1;ratioP1;P1;durP2;ratioP2;P2;SDS_P1;SDS_P2;PMS_P1;PMS_P2;Temp;Humidity;BMP_temperature;BMP_pressure;BME280_temperature;BME280_humidity;BME280_pressure;Samples;Min_cycle;Max_cycle;Signal;HPM_P1;HPM_P2
2022/11/11 00:01:32;;;;;;;9.60;3.30;;;12.60;99.90;;;;;;7407299;19;19922;-87
2022/11/11 00:04:04;;;;;;;10.40;3.25;;;12.50;99.90;;;;;;7408868;19;19918;-85
2022/11/11 00:06:33;;;;;;;5.75;2.50;;;12.40;99.90;;;;;;7409889;19;19982;-85
2022/11/11 00:09:02;;;;;;;7.72;3.05;;;12.40;99.90;;;;;;7407333;19;19925;-85
2022/11/11 00:11:30;;;;;;;10.00;3.38;;;12.40;99.90;;;;;;7407340;19;19914;-85
2022/11/11 00:13:59;;;;;;;10.48;3.30;;;12.50;99.90;;;;;;7408559;19;19974;-85
2022/11/11 00:25:04;;;;;;;8.50;2.58;;;12.40;99.90;;;;;;7406494;19;19921;-85
2022/11/11 00:27:23;;;;;;;9.27;4.05;;;12.30;99.90;;;;;;7406232;19;20318;-86
2022/11/11 00:29:52;;;;;;;12.52;4.57;;;12.30;99.90;;;;;;7409018;19;20355;-85
2022/11/11 00:32:32;;;;;;;8.85;2.65;;;12.20;99.90;;;;;;7406471;19;19925;-85
2022/11/11 00:37:47;;;;;;;9.98;4.00;;;12.30;99.90;;;;;;7410030;19;20347;-85
2022/11/11 00:40:17;;;;;;;9.43;4.65;;;12.30;99.90;;;;;;7408095;19;19918;-86
2022/11/11 00:42:46;;;;;;;10.90;3.72;;;12.30;99.90;;;;;;7405998;19;20329;-86
2022/11/11 00:45:15;;;;;;;7.65;3.40;;;12.20;99.90;;;;;;7407606;19;19918;-86
2022/11/11 00:53:14;;;;;;;7.75;4.43;;;12.10;99.90;;;;;;7409274;19;19971;-85
2022/11/11 00:55:43;;;;;;;9.43;3.40;;;12.10;99.90;;;;;;7404124;19;19918;-86
2022/11/11 00:58:15;;;;;;;7.85;3.80;;;12.10;99.90;;;;;;7404987;19;19915;-86
2022/11/11 01:00:44;;;;;;;10.50;3.53;;;12.00;99.90;;;;;;7405088;19;20277;-85
2022/11/11 01:03:13;;;;;;;10.70;6.03;;;12.00;99.90;;;;;;7405668;19;19973;-86
2022/11/11 01:05:45;;;;;;;8.05;4.75;;;11.90;99.90;;;;;;7405600;19;19925;-86
2022/11/11 01:08:14;;;;;;;9.95;4.20;;;11.90;99.90;;;;;;7408163;19;19918;-87
2022/11/11 01:10:43;;;;;;;9.82;3.67;;;12.00;99.90;;;;;;7405361;19;20612;-86
2022/11/11 01:13:21;;;;;;;7.28;4.43;;;12.00;99.90;;;;;;7407359;19;19923;-86
2022/11/11 01:15:52;;;;;;;8.98;4.00;;;11.90;99.90;;;;;;7407253;19;19934;-84
2022/11/11 01:18:23;;;;;;;14.07;5.70;;;11.90;99.90;;;;;;7405005;19;19918;-85
2022/11/11 01:21:03;;;;;;;8.63;3.75;;;11.90;99.90;;;;;;7405310;19;19929;-87
2022/11/11 01:23:33;;;;;;;8.20;4.65;;;11.90;99.90;;;;;;7403739;19;19918;-85
2022/11/11 01:26:06;;;;;;;8.93;3.72;;;11.90;99.90;;;;;;7406915;19;19932;-84
2022/11/11 01:28:35;;;;;;;8.88;3.25;;;12.00;99.90;;;;;;7403971;19;19922;-86
2022/11/11 01:31:06;;;;;;;11.27;4.38;;;12.00;99.90;;;;;;7406798;19;19922;-85
2022/11/11 01:33:36;;;;;;;10.43;3.95;;;12.00;99.90;;;;;;7404648;19;19914;-86
2022/11/11 01:36:10;;;;;;;9.02;4.95;;;12.00;99.90;;;;;;7407025;19;19939;-86
2022/11/11 01:38:41;;;;;;;9.93;4.70;;;12.00;99.90;;;;;;7406124;19;19919;-85
2022/11/11 01:43:55;;;;;;;11.15;4.93;;;12.00;99.90;;;;;;7408845;19;19947;-85
2022/11/11 01:46:33;;;;;;;13.32;5.50;;;12.10;99.90;;;;;;7404294;19;19922;-86
2022/11/11 01:49:20;;;;;;;11.32;5.50;;;12.00;99.90;;;;;;7405595;19;19926;-85
2022/11/11 01:52:05;;;;;;;10.23;4.32;;;11.90;99.90;;;;;;7404670;19;19925;-86
2022/11/11 01:54:37;;;;;;;9.65;4.60;;;12.00;99.90;;;;;;7403724;19;19914;-85
2022/11/11 01:57:10;;;;;;;10.38;5.47;;;12.00;99.90;;;;;;7403341;19;19919;-86
2022/11/11 01:59:42;;;;;;;15.07;4.57;;;12.00;99.90;;;;;;7402690;19;19922;-85
2022/11/11 02:02:19;;;;;;;8.50;3.88;;;12.00;99.90;;;;;;7407533;19;20372;-86
2022/11/11 02:07:34;;;;;;;;;;;12.10;99.90;;;;;;7406657;19;20366;-86
2022/11/11 02:10:07;;;;;;;11.07;5.22;;;12.10;99.90;;;;;;7403536;19;19926;-85
2022/11/11 02:15:17;;;;;;;13.55;5.13;;;12.10;99.90;;;;;;7402625;19;19917;-86
2022/11/11 02:17:49;;;;;;;8.93;4.32;;;12.10;99.90;;;;;;7403638;19;20256;-85
2022/11/11 02:20:22;;;;;;;11.52;5.00;;;12.10;99.90;;;;;;7404628;19;20340;-86
2022/11/11 02:22:59;;;;;;;9.05;4.30;;;12.10;99.90;;;;;;7406452;19;19914;-85
2022/11/11 02:25:33;;;;;;;13.18;4.70;;;12.10;99.90;;;;;;7399231;19;19923;-86
2022/11/11 02:28:07;;;;;;;12.80;5.93;;;12.10;99.90;;;;;;7402870;19;19918;-85
2022/11/11 02:30:36;;;;;;;11.63;4.70;;;12.10;99.90;;;;;;7403323;19;19923;-85
2022/11/11 02:33:06;;;;;;;;;;;11.90;99.90;;;;;;7405132;19;19921;-85
2022/11/11 02:35:37;;;;;;;10.57;4.68;;;12.10;99.90;;;;;;7406845;19;20325;-85
2022/11/11 02:38:10;;;;;;;9.35;5.05;;;12.10;99.90;;;;;;7404101;19;19918;-86
2022/11/11 02:41:55;;;;;;;14.63;5.28;;;12.00;99.90;;;;;;7406703;19;19919;-87
2022/11/11 02:43:34;;;;;;;12.85;6.45;;;12.00;99.90;;;;;;7402364;19;19933;-86
2022/11/11 02:46:04;;;;;;;;;;;12.00;99.90;;;;;;7404565;19;19915;-86
2022/11/11 02:48:34;;;;;;;10.55;4.88;;;12.00;99.90;;;;;;7402782;19;19919;-85
2022/11/11 02:51:03;;;;;;;11.73;5.60;;;11.90;99.90;;;;;;7401411;19;19915;-85
2022/11/11 02:53:32;;;;;;;13.48;6.25;;;12.00;99.90;;;;;;7402419;19;19911;-86
2022/11/11 02:56:03;;;;;;;12.45;5.32;;;11.90;99.90;;;;;;7402358;19;19914;-86
2022/11/11 02:58:32;;;;;;;11.20;7.20;;;11.90;99.90;;;;;;7401432;19;19995;-85
2022/11/11 03:01:02;;;;;;;14.15;7.30;;;11.90;99.90;;;;;;7404348;19;20382;-86
2022/11/11 03:03:31;;;;;;;12.77;7.78;;;11.90;99.90;;;;;;7402060;19;19923;-85
2022/11/11 03:06:00;;;;;;;12.77;6.10;;;11.90;99.90;;;;;;7401883;19;20252;-86
2022/11/11 03:08:29;;;;;;;15.73;6.68;;;11.90;99.90;;;;;;7401712;19;19932;-85
2022/11/11 03:10:57;;;;;;;11.77;8.25;;;11.90;99.90;;;;;;7401575;19;20479;-86
2022/11/11 03:13:29;;;;;;;15.98;8.18;;;11.80;99.90;;;;;;7403355;19;19929;-86
2022/11/11 03:15:58;;;;;;;16.80;7.20;;;11.70;99.90;;;;;;7401439;19;19921;-86
2022/11/11 03:18:24;;;;;;;12.75;7.53;;;11.70;99.90;;;;;;7401060;19;19946;-85
2022/11/11 03:21:08;;;;;;;16.83;7.93;;;11.70;99.90;;;;;;7408613;19;19911;-85
2022/11/11 03:23:37;;;;;;;14.02;7.13;;;11.70;99.90;;;;;;7410125;19;19957;-86
2022/11/11 03:26:07;;;;;;;12.98;7.40;;;11.70;99.90;;;;;;7408816;19;19925;-86
2022/11/11 03:28:39;;;;;;;13.80;7.85;;;11.60;99.90;;;;;;7410578;19;19920;-86
2022/11/11 03:31:08;;;;;;;14.93;8.63;;;11.60;99.90;;;;;;7410909;19;20361;-85
2022/11/11 03:33:36;;;;;;;17.48;7.90;;;11.60;99.90;;;;;;7409378;19;19929;-84
2022/11/11 03:36:06;;;;;;;14.88;8.23;;;11.60;99.90;;;;;;7410684;19;19915;-91
2022/11/11 03:38:32;;;;;;;16.15;8.88;;;11.60;99.90;;;;;;7407878;19;19941;-84
2022/11/11 03:41:01;;;;;;;13.15;7.90;;;11.60;99.90;;;;;;7409229;19;20286;-86
2022/11/11 03:43:32;;;;;;;16.90;9.45;;;11.60;99.90;;;;;;7406903;19;20070;-83
2022/11/11 03:46:06;;;;;;;15.13;9.13;;;11.50;99.90;;;;;;7407577;19;19923;-77
2022/11/11 03:48:36;;;;;;;17.83;9.55;;;11.50;99.90;;;;;;7408183;19;19919;-86
2022/11/11 03:51:05;;;;;;;15.85;8.80;;;11.50;99.90;;;;;;7408234;19;19919;-85
2022/11/11 03:53:33;;;;;;;17.48;9.93;;;11.50;99.90;;;;;;7410448;19;19941;-83
2022/11/11 03:56:02;;;;;;;20.75;8.88;;;11.40;99.90;;;;;;7407310;19;19911;-90
2022/11/11 03:58:31;;;;;;;18.13;9.90;;;11.40;99.90;;;;;;7408512;19;19923;-88
2022/11/11 04:10:21;;;;;;;16.05;8.75;;;11.40;99.90;;;;;;7409261;19;19915;-85
2022/11/11 04:12:05;;;;;;;18.88;9.70;;;11.30;99.90;;;;;;7399919;19;19953;-86
2022/11/11 04:17:16;;;;;;;20.77;9.50;;;11.40;99.90;;;;;;7405605;19;19915;-85
2022/11/11 04:22:28;;;;;;;19.13;10.48;;;11.40;99.90;;;;;;7406125;19;19946;-86
2022/11/11 04:27:39;;;;;;;17.73;9.57;;;11.40;99.90;;;;;;7408624;19;19922;-87
2022/11/11 04:30:06;;;;;;;19.58;9.45;;;11.40;99.90;;;;;;7407007;19;19990;-86
2022/11/11 04:32:38;;;;;;;20.10;10.50;;;11.40;99.90;;;;;;7405966;19;19918;-85
2022/11/11 04:35:13;;;;;;;15.85;8.60;;;11.50;99.90;;;;;;7406225;19;19914;-86
2022/11/11 04:37:48;;;;;;;19.58;10.25;;;11.40;99.90;;;;;;7406052;19;19911;-86
2022/11/11 04:42:59;;;;;;;22.52;10.25;;;11.50;99.90;;;;;;7409933;19;19926;-87
2022/11/11 04:45:30;;;;;;;20.83;12.07;;;11.50;99.90;;;;;;7406445;19;20437;-86
2022/11/11 04:48:00;;;;;;;17.20;8.70;;;11.50;99.90;;;;;;7409501;19;20208;-87
2022/11/11 04:50:34;;;;;;;18.92;10.18;;;11.50;99.90;;;;;;7406068;19;20309;-86
2022/11/11 04:53:03;;;;;;;17.00;9.77;;;11.40;99.90;;;;;;7405777;19;19922;-86
2022/11/11 04:58:14;;;;;;;17.10;11.43;;;11.40;99.90;;;;;;7409046;19;19918;-86
2022/11/11 05:00:43;;;;;;;21.05;11.38;;;11.40;99.90;;;;;;7405556;19;19926;-86
2022/11/11 05:03:17;;;;;;;23.17;10.27;;;11.30;99.90;;;;;;7408809;19;20281;-87
2022/11/11 05:11:14;;;;;;;13.93;7.07;;;11.30;99.90;;;;;;7405001;19;19918;-86
2022/11/11 05:21:59;;;;;;;23.50;12.32;;;11.30;99.90;;;;;;7404755;19;19911;-86
2022/11/11 05:27:09;;;;;;;19.05;10.05;;;11.30;99.90;;;;;;7404651;19;19943;-85
2022/11/11 05:29:38;;;;;;;20.90;10.55;;;11.40;99.90;;;;;;7404927;19;19915;-86
2022/11/11 05:32:08;;;;;;;19.58;11.57;;;11.40;99.90;;;;;;7407470;19;19918;-86
2022/11/11 05:34:37;;;;;;;20.25;12.90;;;11.40;99.90;;;;;;7404391;19;19993;-87
2022/11/11 05:37:09;;;;;;;18.58;10.63;;;11.50;99.90;;;;;;7408957;19;19915;-86
2022/11/11 05:39:38;;;;;;;21.63;11.90;;;11.50;99.90;;;;;;7407727;19;19925;-83
2022/11/11 05:42:07;;;;;;;23.95;12.80;;;11.50;99.90;;;;;;7400253;19;19922;-85
2022/11/11 05:44:36;;;;;;;16.50;8.82;;;11.40;99.90;;;;;;7406435;19;19918;-87
2022/11/11 05:47:05;;;;;;;23.88;11.82;;;11.40;99.90;;;;;;7405927;19;19914;-86
2022/11/11 05:49:34;;;;;;;20.67;11.10;;;11.50;99.90;;;;;;7406619;19;19995;-85
2022/11/11 05:52:04;;;;;;;21.90;11.57;;;11.40;99.90;;;;;;7405442;19;19924;-86
2022/11/11 05:54:35;;;;;;;22.92;10.02;;;11.50;99.90;;;;;;7405827;19;19929;-86
2022/11/11 05:57:05;;;;;;;20.52;11.05;;;11.50;99.90;;;;;;7407545;19;19922;-85
2022/11/11 05:59:34;;;;;;;25.40;11.23;;;11.50;99.90;;;;;;7404010;19;19935;-85
2022/11/11 06:02:02;;;;;;;20.88;9.48;;;11.50;99.90;;;;;;7408588;19;19965;-86
2022/11/11 06:04:33;;;;;;;21.83;13.02;;;11.50;99.90;;;;;;7407574;19;19922;-86
2022/11/11 06:07:03;;;;;;;23.27;12.15;;;11.50;99.90;;;;;;7403665;19;19990;-87
2022/11/11 06:09:35;;;;;;;21.23;11.70;;;11.60;99.90;;;;;;7407422;19;19962;-90
2022/11/11 06:12:04;;;;;;;23.55;12.65;;;11.60;99.90;;;;;;7405101;19;19943;-86
2022/11/11 06:14:32;;;;;;;421.15;35.67;;;11.60;99.90;;;;;;7404240;19;19935;-87
2022/11/11 06:17:01;;;;;;;19.08;9.27;;;11.50;99.90;;;;;;7405815;19;19985;-85
2022/11/11 06:19:30;;;;;;;17.75;10.05;;;11.70;99.90;;;;;;7404905;19;19926;-84
2022/11/11 06:22:02;;;;;;;18.83;6.65;;;11.80;99.90;;;;;;7403841;19;19918;-84
2022/11/11 06:24:31;;;;;;;23.98;13.25;;;12.00;99.90;;;;;;7402596;19;19942;-82
2022/11/11 06:27:01;;;;;;;;;;;12.00;99.90;;;;;;7406370;19;19933;-83
2022/11/11 06:29:30;;;;;;;;;;;12.00;99.90;;;;;;7409126;19;19927;-83
2022/11/11 06:31:59;;;;;;;21.45;13.27;;;12.00;99.90;;;;;;7404819;19;20333;-84
2022/11/11 06:34:28;;;;;;;20.88;10.18;;;12.00;99.90;;;;;;7401745;19;19919;-84
2022/11/11 06:36:57;;;;;;;23.27;10.20;;;12.00;99.90;;;;;;7405925;19;19914;-85
2022/11/11 06:39:28;;;;;;;22.08;11.07;;;12.00;99.90;;;;;;7399210;19;19918;-84
2022/11/11 06:41:58;;;;;;;25.70;13.20;;;11.90;99.90;;;;;;7399050;19;19918;-84
2022/11/11 06:44:29;;;;;;;24.20;12.65;;;11.80;99.90;;;;;;7398081;19;19927;-84
2022/11/11 06:46:58;;;;;;;23.65;11.32;;;11.80;99.90;;;;;;7398135;19;20326;-84
2022/11/11 06:49:27;;;;;;;21.63;13.23;;;11.80;99.90;;;;;;7405810;19;19915;-85
2022/11/11 06:51:56;;;;;;;21.73;12.65;;;11.70;99.90;;;;;;7402629;19;19929;-80
2022/11/11 06:54:25;;;;;;;22.50;12.95;;;11.70;99.90;;;;;;7404174;19;19922;-87
2022/11/11 06:56:54;;;;;;;19.50;10.27;;;11.60;99.90;;;;;;7409353;19;19937;-80
2022/11/11 06:59:23;;;;;;;18.23;11.15;;;11.60;99.90;;;;;;7409870;19;19918;-87
2022/11/11 07:01:55;;;;;;;21.55;12.63;;;11.60;99.90;;;;;;7412088;19;19986;-86
2022/11/11 07:04:24;;;;;;;20.30;12.70;;;11.70;99.90;;;;;;7411187;19;19995;-85
2022/11/11 07:06:52;;;;;;;23.13;10.93;;;11.70;99.90;;;;;;7409516;19;20347;-84
2022/11/11 07:09:32;;;;;;;23.35;12.02;;;11.80;99.90;;;;;;7411024;19;19970;-86
2022/11/11 07:12:01;;;;;;;24.38;11.48;;;11.80;99.90;;;;;;7408034;19;20281;-81
2022/11/11 07:14:30;;;;;;;19.58;9.77;;;11.80;99.90;;;;;;7411121;19;19926;-85
2022/11/11 07:17:02;;;;;;;33.53;12.30;;;11.90;99.90;;;;;;7405642;19;19919;-83
2022/11/11 07:19:31;;;;;;;25.13;12.20;;;11.90;99.90;;;;;;7407429;19;19969;-87
2022/11/11 07:22:03;;;;;;;23.10;10.93;;;11.80;99.90;;;;;;7408127;19;19929;-82
2022/11/11 07:24:32;;;;;;;34.38;12.65;;;11.90;99.90;;;;;;7404156;19;19962;-82
2022/11/11 07:27:01;;;;;;;23.10;10.68;;;11.90;99.90;;;;;;7408408;19;20321;-82
2022/11/11 07:29:30;;;;;;;39.85;11.90;;;11.90;99.90;;;;;;7407877;19;19923;-75
2022/11/11 07:32:02;;;;;;;22.38;9.93;;;11.90;99.90;;;;;;7412390;19;19915;-76
2022/11/11 07:34:31;;;;;;;21.42;10.20;;;11.90;99.90;;;;;;7408213;19;19939;-75
2022/11/11 07:37:00;;;;;;;22.30;11.15;;;12.00;99.90;;;;;;7407691;19;19917;-79
2022/11/11 07:39:28;;;;;;;25.73;11.05;;;12.00;99.90;;;;;;7407020;19;19925;-74
2022/11/11 07:41:57;;;;;;;27.67;12.57;;;12.00;99.90;;;;;;7407636;19;19918;-75
2022/11/11 07:44:26;;;;;;;27.30;11.70;;;12.10;99.90;;;;;;7407253;19;19946;-74
2022/11/11 07:46:55;;;;;;;29.83;11.93;;;12.10;99.90;;;;;;7407343;19;19918;-74
2022/11/11 07:49:27;;;;;;;24.65;11.32;;;12.10;99.90;;;;;;7407417;19;19925;-74
2022/11/11 07:51:55;;;;;;;16.50;8.52;;;12.10;99.90;;;;;;7407329;19;19914;-81
2022/11/11 07:54:24;;;;;;;35.58;13.65;;;12.20;99.90;;;;;;7407783;19;19942;-78
2022/11/11 07:56:53;;;;;;;24.20;11.68;;;12.30;99.90;;;;;;7407565;19;19926;-77
2022/11/11 07:59:22;;;;;;;26.27;11.77;;;12.20;99.90;;;;;;7406623;19;19918;-77
2022/11/11 08:01:52;;;;;;;32.50;11.25;;;12.20;99.90;;;;;;7407185;19;19914;-78
2022/11/11 08:04:20;;;;;;;21.33;9.95;;;12.20;99.90;;;;;;7408220;19;19918;-78
2022/11/11 08:06:52;;;;;;;29.90;11.95;;;12.30;99.90;;;;;;7405929;19;20660;-79
2022/11/11 08:09:24;;;;;;;38.72;11.63;;;12.30;99.90;;;;;;7407100;19;20336;-79
2022/11/11 08:14:35;;;;;;;36.10;13.48;;;12.20;99.90;;;;;;7406676;19;20605;-79
2022/11/11 08:17:04;;;;;;;30.38;11.15;;;12.20;99.90;;;;;;7405079;19;20357;-81
2022/11/11 08:19:33;;;;;;;35.40;12.65;;;12.20;99.90;;;;;;7406765;19;19922;-79
2022/11/11 08:22:05;;;;;;;19.15;10.50;;;12.30;99.90;;;;;;7408922;19;19918;-82
2022/11/11 08:24:34;;;;;;;29.05;11.32;;;12.30;99.90;;;;;;7403836;19;20257;-84
2022/11/11 08:27:03;;;;;;;28.80;9.88;;;12.30;99.90;;;;;;7406513;19;20245;-82
2022/11/11 08:29:31;;;;;;;34.03;11.77;;;12.30;99.90;;;;;;7406345;19;19941;-83
2022/11/11 08:32:00;;;;;;;22.33;10.32;;;12.30;99.90;;;;;;7406181;19;19919;-84
2022/11/11 08:34:29;;;;;;;23.60;9.70;;;12.30;99.90;;;;;;7405947;19;19919;-83
2022/11/11 08:36:58;;;;;;;25.30;9.65;;;12.30;99.90;;;;;;7406465;19;20270;-83
2022/11/11 08:39:29;;;;;;;19.13;10.68;;;12.30;99.90;;;;;;7408953;19;19907;-83
2022/11/11 08:42:00;;;;;;;19.95;10.77;;;12.30;99.90;;;;;;7406735;19;19921;-82
2022/11/11 08:44:29;;;;;;;20.35;10.63;;;12.30;99.90;;;;;;7405724;19;19918;-82
2022/11/11 08:46:58;;;;;;;20.35;10.60;;;12.20;99.90;;;;;;7405711;19;20264;-82
2022/11/11 08:49:27;;;;;;;18.48;9.32;;;12.20;99.90;;;;;;7405911;19;19918;-82
2022/11/11 08:51:56;;;;;;;16.92;8.63;;;12.20;99.90;;;;;;7408574;19;19914;-83
2022/11/11 08:54:25;;;;;;;19.85;8.98;;;12.20;99.90;;;;;;7405454;19;19915;-83
2022/11/11 08:56:57;;;;;;;22.92;10.98;;;12.30;99.90;;;;;;7410161;19;20052;-82
2022/11/11 08:59:26;;;;;;;22.20;9.98;;;12.30;99.90;;;;;;7406036;19;19925;-83
2022/11/11 09:01:55;;;;;;;23.52;10.20;;;12.30;99.90;;;;;;7403477;19;19915;-82
2022/11/11 09:04:24;;;;;;;19.92;8.95;;;12.40;99.90;;;;;;7405437;19;20249;-83
2022/11/11 09:06:53;;;;;;;20.90;9.93;;;12.40;99.90;;;;;;7405182;19;19915;-83
2022/11/11 09:09:22;;;;;;;22.92;9.65;;;12.30;99.90;;;;;;7405267;19;19921;-82
2022/11/11 09:11:51;;;;;;;18.88;9.07;;;12.30;99.90;;;;;;7405453;19;19917;-79
2022/11/11 09:14:26;;;;;;;20.02;8.85;;;12.40;99.90;;;;;;7403983;19;19927;-83
2022/11/11 09:16:55;;;;;;;19.30;10.40;;;12.40;99.90;;;;;;7407016;19;19933;-84
2022/11/11 09:19:24;;;;;;;21.33;9.70;;;12.30;99.90;;;;;;7405563;19;19930;-79
2022/11/11 09:21:53;;;;;;;17.60;8.40;;;12.30;99.90;;;;;;7403299;19;19921;-80
2022/11/11 09:24:22;;;;;;;28.65;12.45;;;12.30;99.90;;;;;;7402850;19;19914;-78
2022/11/11 09:26:52;;;;;;;20.70;9.60;;;12.40;99.90;;;;;;7404500;19;19970;-85
2022/11/11 09:29:21;;;;;;;20.27;11.27;;;12.40;99.90;;;;;;7406006;19;19922;-79
2022/11/11 09:31:52;;;;;;;31.48;15.00;;;12.30;99.90;;;;;;7405181;19;19914;-77
2022/11/11 09:34:22;;;;;;;29.58;15.63;;;12.30;99.90;;;;;;7405328;19;19914;-77
2022/11/11 09:36:51;;;;;;;41.50;21.17;;;12.40;99.90;;;;;;7404896;19;19923;-80
2022/11/11 09:39:20;;;;;;;22.48;9.90;;;12.40;99.90;;;;;;7404784;19;19970;-79
2022/11/11 09:41:58;;;;;;;42.72;16.90;;;12.40;99.90;;;;;;7402715;19;19927;-81
2022/11/11 09:44:43;;;;;;;43.08;17.58;;;12.40;99.90;;;;;;7403360;19;19922;-87
2022/11/11 09:47:23;;;;;;;26.02;13.23;;;12.60;99.90;;;;;;7406760;19;19914;-83
2022/11/11 09:50:01;;;;;;;33.97;15.50;;;12.60;99.90;;;;;;7405223;19;19919;-83
2022/11/11 09:52:34;;;;;;;22.05;10.27;;;12.70;99.90;;;;;;7404187;19;19915;-83
2022/11/11 09:55:08;;;;;;;19.27;10.32;;;12.70;99.90;;;;;;7403218;19;19926;-83
2022/11/11 09:57:39;;;;;;;22.80;10.65;;;12.60;99.90;;;;;;7406412;19;19923;-80
2022/11/11 10:00:18;;;;;;;28.10;10.43;;;12.60;99.90;;;;;;7404201;19;20355;-85
2022/11/11 10:02:53;;;;;;;20.45;10.10;;;12.60;99.90;;;;;;7406352;19;20337;-85
2022/11/11 10:05:26;;;;;;;18.17;10.00;;;12.70;99.90;;;;;;7404390;19;19932;-82
2022/11/11 10:07:59;;;;;;;19.67;10.60;;;12.70;99.90;;;;;;7406498;19;19931;-82
2022/11/11 10:10:40;;;;;;;21.17;8.68;;;12.60;99.90;;;;;;7407920;19;19914;-83
2022/11/11 10:13:15;;;;;;;29.55;10.35;;;12.50;99.90;;;;;;7405783;19;19925;-78
2022/11/11 10:15:58;;;;;;;29.85;9.88;;;12.60;99.90;;;;;;7402848;19;19919;-83
2022/11/11 10:18:43;;;;;;;18.70;8.90;;;12.60;99.90;;;;;;7405862;19;19925;-83
2022/11/11 10:21:19;;;;;;;27.73;8.80;;;12.80;99.90;;;;;;7404883;19;19940;-81
2022/11/11 10:23:51;;;;;;;19.63;9.98;;;12.90;99.90;;;;;;7401880;19;19967;-82
2022/11/11 10:26:22;;;;;;;17.75;8.65;;;12.90;99.90;;;;;;7402540;19;19927;-81
2022/11/11 10:28:54;;;;;;;15.75;8.38;;;12.90;99.90;;;;;;7404930;19;19911;-85
2022/11/11 10:31:25;;;;;;;16.38;7.53;;;12.80;99.90;;;;;;7413275;19;20337;-80
2022/11/11 10:34:02;;;;;;;17.67;7.25;;;12.80;99.90;;;;;;7410879;19;19930;-82
2022/11/11 10:36:32;;;;;;;32.20;8.95;;;12.80;99.90;;;;;;7409461;19;19918;-80
2022/11/11 10:39:05;;;;;;;38.90;10.68;;;12.70;99.90;;;;;;7413849;19;19996;-78
2022/11/11 10:41:38;;;;;;;20.65;9.07;;;12.80;99.90;;;;;;7407392;19;19914;-81
2022/11/11 10:44:22;;;;;;;20.80;8.68;;;12.80;99.90;;;;;;7408845;19;19926;-80
2022/11/11 10:47:00;;;;;;;12.88;7.00;;;12.90;99.90;;;;;;7410475;19;20332;-80
2022/11/11 10:49:36;;;;;;;24.13;8.10;;;12.90;99.90;;;;;;7411205;19;19942;-87
2022/11/11 10:52:07;;;;;;;;;;;12.90;99.90;;;;;;7410047;19;20282;-80
2022/11/11 10:54:43;;;;;;;15.07;7.60;;;13.00;99.90;;;;;;7411847;19;19938;-81
2022/11/11 10:57:16;;;;;;;20.38;8.32;;;13.00;99.90;;;;;;7410110;19;19926;-82
2022/11/11 10:59:51;;;;;;;22.92;9.38;;;13.10;99.90;;;;;;7410940;19;19918;-82
2022/11/11 11:02:24;;;;;;;21.80;8.30;;;13.10;99.90;;;;;;7406859;19;19914;-81
2022/11/11 11:05:03;;;;;;;16.00;6.95;;;13.20;99.90;;;;;;7412297;19;20015;-81
2022/11/11 11:07:39;;;;;;;19.80;7.28;;;13.20;99.90;;;;;;7396109;19;20321;-80
2022/11/11 11:10:14;;;;;;;14.02;6.82;;;13.30;99.90;;;;;;7410090;19;19950;-78
2022/11/11 11:12:48;;;;;;;19.48;8.00;;;13.20;99.90;;;;;;7406307;19;19926;-83
2022/11/11 11:15:21;;;;;;;12.20;7.47;;;13.30;99.90;;;;;;7408029;19;19918;-83
2022/11/11 11:18:01;;;;;;;13.38;7.30;;;13.40;99.90;;;;;;7406957;19;19923;-82
2022/11/11 11:20:33;;;;;;;23.25;7.10;;;13.40;99.90;;;;;;7384524;19;19923;-79
2022/11/11 11:23:02;;;;;;;15.48;8.00;;;13.40;99.90;;;;;;7383130;19;19922;-81
2022/11/11 11:25:32;;;;;;;14.60;7.05;;;13.30;99.90;;;;;;7384019;19;19952;-82
2022/11/11 11:28:10;;;;;;;15.80;6.25;;;13.30;99.90;;;;;;7384547;19;19918;-83
2022/11/11 11:30:39;;;;;;;14.05;7.57;;;13.30;99.90;;;;;;7383679;19;19938;-85
2022/11/11 11:33:09;;;;;;;14.15;7.70;;;13.30;99.90;;;;;;7383571;19;19919;-85
2022/11/11 11:35:43;;;;;;;13.73;6.82;;;13.40;99.90;;;;;;7383717;19;19967;-77
2022/11/11 11:38:13;;;;;;;16.25;6.13;;;13.40;99.90;;;;;;7382504;19;20265;-82
2022/11/11 11:40:51;;;;;;;13.70;7.47;;;13.40;99.90;;;;;;7381951;19;20368;-82
2022/11/11 11:43:33;;;;;;;14.18;7.57;;;13.40;99.90;;;;;;7385733;19;19922;-82
2022/11/11 11:46:03;;;;;;;14.90;5.95;;;13.40;99.90;;;;;;7380105;19;19914;-82
2022/11/11 11:48:49;;;;;;;18.05;6.80;;;13.40;99.90;;;;;;7386547;19;19914;-81
2022/11/11 11:51:30;;;;;;;13.00;6.43;;;13.40;99.90;;;;;;7379877;19;19926;-82
2022/11/11 11:54:14;;;;;;;13.85;6.38;;;13.40;99.90;;;;;;7380396;19;20360;-81
2022/11/11 11:56:46;;;;;;;11.80;7.13;;;13.40;99.90;;;;;;7382184;19;19922;-82
2022/11/11 11:59:23;;;;;;;11.52;7.28;;;13.30;99.90;;;;;;7382359;19;19923;-82
2022/11/11 12:01:58;;;;;;;12.70;6.60;;;13.40;99.90;;;;;;7381576;19;19931;-82
2022/11/11 12:04:56;;;;;;;25.10;10.00;;;13.40;99.90;;;;;;7378688;19;19919;-82
2022/11/11 12:07:40;;;;;;;13.40;7.40;;;13.40;99.90;;;;;;7384591;19;19926;-81
2022/11/11 12:10:25;;;;;;;24.63;10.00;;;13.40;99.90;;;;;;7379774;19;19922;-81
2022/11/11 12:13:05;;;;;;;21.83;7.53;;;13.30;99.90;;;;;;7380990;19;19926;-81
2022/11/11 12:15:39;;;;;;;17.70;8.40;;;13.20;99.90;;;;;;7378935;19;19923;-87
2022/11/11 12:18:28;;;;;;;15.90;9.38;;;13.10;99.90;;;;;;7383108;19;19929;-87
2022/11/11 12:21:05;;;;;;;16.17;9.98;;;13.10;99.90;;;;;;7384932;19;20823;-86
2022/11/11 12:23:52;;;;;;;14.85;9.63;;;13.00;99.90;;;;;;7383197;19;21715;-86
2022/11/11 12:26:27;;;;;;;18.52;8.63;;;13.00;99.90;;;;;;7382289;19;20033;-86
2022/11/11 12:29:14;;;;;;;19.00;9.05;;;12.90;99.90;;;;;;7382756;19;19926;-82
2022/11/11 12:31:57;;;;;;;17.90;10.30;;;12.80;99.90;;;;;;7382976;19;19922;-85
2022/11/11 12:34:44;;;;;;;17.63;10.02;;;12.70;99.90;;;;;;7384102;19;19915;-86
2022/11/11 12:37:26;;;;;;;16.98;8.90;;;12.80;99.90;;;;;;7381563;19;19998;-86
2022/11/11 12:40:17;;;;;;;16.23;8.32;;;12.70;99.90;;;;;;7382240;19;20321;-86
2022/11/11 12:43:01;;;;;;;32.55;10.15;;;12.70;99.90;;;;;;7380602;19;19911;-86
2022/11/11 12:45:37;;;;;;;14.68;7.70;;;12.70;99.90;;;;;;7382014;19;19918;-86
2022/11/11 12:48:19;;;;;;;14.93;7.53;;;12.70;99.90;;;;;;7383720;19;19950;-87
2022/11/11 12:50:54;;;;;;;13.75;7.25;;;12.70;99.90;;;;;;7383666;19;19926;-86
2022/11/11 12:53:34;;;;;;;13.88;7.60;;;12.70;99.90;;;;;;7381556;19;19961;-80
2022/11/11 12:56:15;;;;;;;16.70;9.32;;;12.70;99.90;;;;;;7382334;19;19910;-87
2022/11/11 12:58:50;;;;;;;14.90;6.18;;;12.80;99.90;;;;;;7381414;19;20364;-86
2022/11/11 13:01:26;;;;;;;14.77;8.32;;;12.80;99.90;;;;;;7381512;19;19923;-87
2022/11/11 13:04:16;;;;;;;13.25;5.72;;;12.90;99.90;;;;;;7382067;19;19974;-87
2022/11/11 13:07:14;;;;;;;15.23;8.65;;;12.90;99.90;;;;;;7381416;19;19933;-87
2022/11/11 13:10:04;;;;;;;13.52;6.07;;;12.90;99.90;;;;;;7379944;19;19978;-83
2022/11/11 13:12:45;;;;;;;14.05;7.68;;;13.10;99.90;;;;;;7376689;19;19927;-80
2022/11/11 13:15:18;;;;;;;11.63;5.07;;;13.10;99.90;;;;;;7381387;19;20447;-80
2022/11/11 13:17:47;;;;;;;11.52;7.95;;;13.20;99.90;;;;;;7380798;19;19923;-92
2022/11/11 13:20:40;;;;;;;13.50;5.50;;;13.30;99.90;;;;;;7379651;19;19986;-85
2022/11/11 13:23:11;;;;;;;11.63;6.65;;;13.40;99.90;;;;;;7401386;19;19957;-85
2022/11/11 13:25:50;;;;;;;12.55;7.82;;;13.40;99.90;;;;;;7403683;19;19922;-79
2022/11/11 13:28:27;;;;;;;12.00;5.68;;;13.30;99.90;;;;;;7405773;19;19930;-85
2022/11/11 13:31:09;;;;;;;14.23;8.02;;;13.40;99.90;;;;;;7403100;19;19918;-82
2022/11/11 13:33:42;;;;;;;12.52;7.20;;;13.50;99.90;;;;;;7405399;19;19922;-83
2022/11/11 13:36:14;;;;;;;13.68;7.28;;;13.50;99.90;;;;;;7408027;19;19935;-83
2022/11/11 13:38:49;;;;;;;9.75;5.78;;;13.60;99.90;;;;;;7405259;19;19932;-90
2022/11/11 13:41:25;;;;;;;11.25;6.13;;;13.60;99.90;;;;;;7401046;19;19929;-77
2022/11/11 13:44:00;;;;;;;11.57;7.13;;;13.60;99.90;;;;;;7402206;19;19918;-88
2022/11/11 13:46:37;;;;;;;7.75;4.50;;;13.60;99.90;;;;;;7404085;19;19919;-88
2022/11/11 13:49:08;;;;;;;12.48;5.90;;;13.60;99.90;;;;;;7405894;19;19946;-88
2022/11/11 13:51:40;;;;;;;10.35;5.55;;;13.60;99.90;;;;;;7401664;19;19922;-88
2022/11/11 13:54:24;;;;;;;9.98;5.82;;;13.70;99.90;;;;;;7403859;19;19943;-89
2022/11/11 13:56:54;;;;;;;9.85;6.03;;;13.60;99.90;;;;;;7404723;19;19918;-88
2022/11/11 13:59:29;;;;;;;12.23;6.13;;;13.60;99.90;;;;;;7405294;19;19987;-89
2022/11/11 14:02:30;;;;;;;10.23;5.32;;;13.60;99.90;;;;;;7404915;19;19978;-85
2022/11/11 14:05:17;;;;;;;10.50;6.03;;;13.60;99.90;;;;;;7402748;19;19927;-89
2022/11/11 14:07:55;;;;;;;13.90;6.45;;;13.70;99.90;;;;;;7404946;19;19930;-87
2022/11/11 14:10:49;;;;;;;8.75;6.13;;;13.70;99.90;;;;;;7402258;19;19918;-87